CAD weather

Wexford County Airport
Cadillac, Michigan, United States

Public forecast

Using degrees Fahrenheit for public forecast. Weather courtesy of forecast.io.

METAR (pilot weather report)

Retrieved 2019/05/27 01:36 UTC (0 seconds ago):

KCAD 270136Z AUTO 00000KT 10SM CLR 16/06 A3005 RMK AO2 T01600067

TAF (pilot weather forecast)

Forecast is more than 12 hours old.

Closest forecast is Cherry Capital Airport, 28.8 nm (53.4 km) NNW. Retrieved 2019/05/26 00:33 UTC (1 day ago):

TAF KTVC 262330Z 2700/2724 VRB03KT P6SM FEW250 FM270300 00000KT P6SM FEW007 FM270500 00000KT P6SM FEW120 FM271200 VRB03KT P6SM BKN250 FM272100 VRB04KT 6SM -SHRA BR OVC070